Time;durP1;ratioP1;P1;durP2;ratioP2;P2;SDS_P1;SDS_P2;PMS_P1;PMS_P2;Temp;Humidity;BMP_temperature;BMP_pressure;BME280_temperature;BME280_humidity;BME280_pressure;Samples;Min_cycle;Max_cycle;Signal;HPM_P1;HPM_P2
2023/01/16 00:04:14;;;;;;;5.77;2.60;;;6.40;96.40;;;;;;10620381;28;20263;-80
2023/01/16 00:09:16;;;;;;;2.60;2.40;;;6.40;96.60;;;;;;10619365;28;20225;-81
2023/01/16 00:14:19;;;;;;;2.83;2.47;;;6.30;96.30;;;;;;10602089;28;20284;-81
2023/01/16 00:19:21;;;;;;;8.10;6.30;;;6.30;96.30;;;;;;10617688;28;20219;-80
2023/01/16 00:24:23;;;;;;;3.23;3.03;;;6.30;97.20;;;;;;10603083;28;20210;-81
2023/01/16 00:29:27;;;;;;;2.50;2.30;;;6.40;97.80;;;;;;10581455;28;20215;-81
2023/01/16 00:34:29;;;;;;;2.53;2.10;;;6.70;96.50;;;;;;10591356;28;20580;-81
2023/01/16 00:39:31;;;;;;;4.80;2.40;;;6.90;96.00;;;;;;10590043;28;20307;-81
2023/01/16 00:44:35;;;;;;;2.70;2.50;;;6.90;96.40;;;;;;10586230;28;20236;-80
2023/01/16 00:49:37;;;;;;;2.33;2.13;;;6.80;97.00;;;;;;10587202;28;20241;-81
2023/01/16 00:54:39;;;;;;;2.73;1.97;;;6.80;96.30;;;;;;10577346;28;20242;-80
2023/01/16 00:59:42;;;;;;;2.20;2.00;;;6.80;95.90;;;;;;10571226;28;20492;-81
2023/01/16 01:04:44;;;;;;;2.80;1.80;;;6.80;95.80;;;;;;10570148;28;20283;-81
2023/01/16 01:09:46;;;;;;;1.80;1.70;;;6.80;95.90;;;;;;10570540;27;20219;-81
2023/01/16 01:14:50;;;;;;;2.90;2.20;;;6.60;95.80;;;;;;10597820;27;20194;-81
2023/01/16 01:19:52;;;;;;;2.35;2.15;;;6.40;96.40;;;;;;10602196;27;20226;-82
2023/01/16 01:24:54;;;;;;;2.00;1.80;;;6.40;95.90;;;;;;10602567;27;20198;-80
2023/01/16 01:29:58;;;;;;;2.53;1.90;;;6.30;95.90;;;;;;10586624;27;20231;-80
2023/01/16 01:35:00;;;;;;;2.15;2.05;;;6.20;96.10;;;;;;10577233;28;20191;-81
2023/01/16 01:40:04;;;;;;;2.43;2.20;;;6.30;96.30;;;;;;10591528;28;20306;-81
2023/01/16 01:45:14;;;;;;;3.33;2.17;;;6.30;96.30;;;;;;10570850;28;20562;-80
2023/01/16 01:50:22;;;;;;;4.30;2.27;;;6.20;96.00;;;;;;10588440;28;20463;-81
2023/01/16 01:55:24;;;;;;;3.37;2.30;;;6.10;96.70;;;;;;10581268;28;20207;-81
2023/01/16 02:00:29;;;;;;;2.00;1.80;;;6.00;96.20;;;;;;10562366;28;20228;-80
2023/01/16 02:05:35;;;;;;;2.80;2.13;;;5.90;96.40;;;;;;10563477;28;20198;-81
2023/01/16 02:10:41;;;;;;;3.92;2.42;;;5.90;96.40;;;;;;10581407;28;20245;-81
2023/01/16 02:21:13;;;;;;;3.00;2.20;;;6.10;96.90;;;;;;10555077;28;20245;-81
2023/01/16 02:26:54;;;;;;;3.47;2.30;;;6.00;96.40;;;;;;10578164;28;20199;-81
2023/01/16 02:32:09;;;;;;;2.60;2.40;;;6.00;96.50;;;;;;10587103;28;20215;-81
2023/01/16 02:37:21;;;;;;;3.90;2.20;;;5.90;96.40;;;;;;10582977;28;20190;-80
2023/01/16 02:42:31;;;;;;;2.17;2.00;;;5.90;96.20;;;;;;10585398;28;20301;-80
2023/01/16 02:47:42;;;;;;;3.10;2.37;;;5.80;96.30;;;;;;10583113;28;20195;-80
2023/01/16 02:52:50;;;;;;;2.63;2.43;;;5.80;96.20;;;;;;10585385;28;20219;-80
2023/01/16 02:57:57;;;;;;;4.13;2.63;;;5.80;96.40;;;;;;10584409;28;20690;-80
2023/01/16 03:03:00;;;;;;;3.80;3.17;;;6.00;96.70;;;;;;10583999;28;20250;-80
2023/01/16 03:08:33;;;;;;;3.23;2.90;;;6.10;96.30;;;;;;10587495;28;20200;-81
2023/01/16 03:13:46;;;;;;;2.30;2.10;;;6.20;96.10;;;;;;10589179;28;20583;-81
2023/01/16 03:18:54;;;;;;;5.03;2.27;;;6.00;96.30;;;;;;10584660;28;20302;-81
2023/01/16 03:24:00;;;;;;;2.70;2.23;;;5.90;96.20;;;;;;10586401;28;20278;-81
2023/01/16 03:29:08;;;;;;;2.43;2.10;;;5.70;96.70;;;;;;10590569;28;20249;-80
2023/01/16 03:34:20;;;;;;;2.10;1.80;;;5.70;96.60;;;;;;10591857;28;20655;-81
2023/01/16 03:39:26;;;;;;;3.30;3.00;;;5.70;96.40;;;;;;10590404;28;20215;-80
2023/01/16 03:44:33;;;;;;;2.43;2.27;;;5.70;96.70;;;;;;10572704;28;20203;-81
2023/01/16 03:49:41;;;;;;;2.10;2.00;;;5.60;96.90;;;;;;10586275;28;20223;-80
2023/01/16 03:54:49;;;;;;;2.50;2.30;;;5.70;97.00;;;;;;10593935;28;20191;-80
2023/01/16 03:59:53;;;;;;;2.53;2.33;;;5.60;97.00;;;;;;10594667;28;20203;-81
2023/01/16 04:05:01;;;;;;;3.10;2.50;;;5.40;97.10;;;;;;10591920;28;20603;-80
2023/01/16 04:10:07;;;;;;;2.20;1.83;;;5.30;97.30;;;;;;10589788;28;20211;-81
2023/01/16 04:15:10;;;;;;;2.90;2.53;;;5.30;97.40;;;;;;10591566;28;20199;-81
2023/01/16 04:20:14;;;;;;;2.90;2.70;;;5.20;97.40;;;;;;10591215;28;20221;-81
2023/01/16 04:25:18;;;;;;;2.93;2.63;;;5.10;97.60;;;;;;10585627;28;20593;-80
2023/01/16 04:30:20;;;;;;;3.33;2.87;;;5.20;97.40;;;;;;10589333;28;20215;-81
2023/01/16 04:35:24;;;;;;;2.55;2.45;;;5.10;97.40;;;;;;10588183;28;20288;-81
2023/01/16 04:40:26;;;;;;;3.93;2.30;;;5.20;97.60;;;;;;10589791;28;20225;-80
2023/01/16 04:45:28;;;;;;;2.60;2.40;;;5.30;97.70;;;;;;10590654;28;20204;-81
2023/01/16 04:50:31;;;;;;;2.45;2.25;;;5.20;97.50;;;;;;10590772;28;20246;-81
2023/01/16 04:55:34;;;;;;;5.10;2.97;;;5.30;97.40;;;;;;10586633;28;20209;-81
2023/01/16 05:00:36;;;;;;;2.87;2.60;;;5.10;97.40;;;;;;10585981;28;20261;-80
2023/01/16 05:05:40;;;;;;;4.77;2.87;;;5.00;97.50;;;;;;10584687;28;20199;-80
2023/01/16 05:10:42;;;;;;;3.05;2.85;;;4.90;98.00;;;;;;10583290;28;20207;-81
2023/01/16 05:15:44;;;;;;;4.10;2.27;;;4.90;98.10;;;;;;10587082;28;20191;-81
2023/01/16 05:20:48;;;;;;;4.80;2.53;;;4.90;97.80;;;;;;10579880;28;20586;-81
2023/01/16 05:25:50;;;;;;;6.50;2.60;;;4.90;97.80;;;;;;10551012;28;20464;-82
2023/01/16 05:30:52;;;;;;;2.73;2.57;;;4.90;98.00;;;;;;10571662;28;20581;-82
2023/01/16 05:35:56;;;;;;;3.53;2.70;;;4.90;97.70;;;;;;10588704;28;20221;-82
2023/01/16 05:40:58;;;;;;;4.17;1.97;;;4.90;97.80;;;;;;10586875;28;20683;-82
2023/01/16 05:46:02;;;;;;;2.40;2.10;;;4.80;97.90;;;;;;10587973;28;20256;-82
2023/01/16 05:51:06;;;;;;;4.80;2.57;;;4.90;98.00;;;;;;10585832;28;20555;-82
2023/01/16 05:56:11;;;;;;;2.97;2.77;;;4.90;98.00;;;;;;10567725;28;20209;-81
2023/01/16 06:01:13;;;;;;;4.18;2.53;;;4.80;97.70;;;;;;10581394;28;20568;-82
2023/01/16 06:06:16;;;;;;;2.83;2.40;;;4.90;97.70;;;;;;10581835;28;20187;-82
2023/01/16 06:11:18;;;;;;;2.30;1.83;;;4.90;98.30;;;;;;10578744;28;20242;-83
2023/01/16 06:16:22;;;;;;;1.65;1.50;;;5.00;97.40;;;;;;10582188;28;20219;-82
2023/01/16 06:21:25;;;;;;;2.73;2.53;;;5.20;96.80;;;;;;10583466;28;20570;-81
2023/01/16 06:26:28;;;;;;;2.37;2.27;;;5.10;96.80;;;;;;10562862;28;20811;-81
2023/01/16 06:31:30;;;;;;;2.70;2.45;;;5.10;96.70;;;;;;10546612;28;20233;-82
2023/01/16 06:36:33;;;;;;;3.20;2.40;;;5.20;97.20;;;;;;10585006;28;20539;-81
2023/01/16 06:41:35;;;;;;;3.53;2.23;;;5.30;96.80;;;;;;10566810;28;20237;-81
2023/01/16 06:46:38;;;;;;;2.50;2.30;;;5.30;96.60;;;;;;10584210;28;20222;-80
2023/01/16 06:51:42;;;;;;;2.60;2.40;;;5.20;96.90;;;;;;10584628;28;20611;-82
2023/01/16 06:56:44;;;;;;;2.67;2.58;;;5.30;96.40;;;;;;10587333;28;20714;-81
2023/01/16 07:01:46;;;;;;;3.27;2.93;;;5.60;95.90;;;;;;10591535;28;20223;-81
2023/01/16 07:06:50;;;;;;;6.65;2.50;;;5.50;95.80;;;;;;10595238;28;20689;-81
2023/01/16 07:11:52;;;;;;;2.60;2.40;;;5.60;95.80;;;;;;10593227;28;20225;-81
2023/01/16 07:27:36;;;;;;;3.03;2.73;;;5.60;95.40;;;;;;10599578;28;20199;-80
2023/01/16 07:32:39;;;;;;;5.65;2.33;;;5.70;95.40;;;;;;10582351;28;20476;-80
2023/01/16 07:37:43;;;;;;;3.00;2.70;;;5.80;95.10;;;;;;10598737;28;20666;-80
2023/01/16 07:42:45;;;;;;;3.00;2.47;;;5.80;95.10;;;;;;10598727;28;20219;-81
2023/01/16 07:47:47;;;;;;;2.70;2.50;;;5.70;95.30;;;;;;10600743;28;20203;-81
2023/01/16 07:52:50;;;;;;;3.30;3.00;;;5.70;95.10;;;;;;10600806;28;20264;-80
2023/01/16 07:57:52;;;;;;;2.63;2.40;;;5.80;95.00;;;;;;10603784;28;20639;-80
2023/01/16 08:02:54;;;;;;;3.00;2.50;;;5.90;95.10;;;;;;10581767;28;20720;-80
2023/01/16 08:07:58;;;;;;;2.33;2.23;;;5.90;94.90;;;;;;10597799;28;20623;-80
2023/01/16 08:13:00;;;;;;;2.43;2.17;;;6.00;94.70;;;;;;10600446;28;20222;-81
2023/01/16 08:18:02;;;;;;;2.50;2.30;;;6.00;94.60;;;;;;10601410;28;20200;-82
2023/01/16 08:23:05;;;;;;;6.07;2.47;;;6.10;94.40;;;;;;10600477;28;20213;-81
2023/01/16 08:28:07;;;;;;;2.87;2.17;;;6.20;94.00;;;;;;10587752;28;20227;-82
2023/01/16 08:33:10;;;;;;;2.80;2.03;;;6.10;93.80;;;;;;10602354;28;20214;-82
2023/01/16 08:38:13;;;;;;;3.13;1.93;;;6.10;93.50;;;;;;10599889;28;20366;-80
2023/01/16 08:53:57;;;;;;;2.40;2.20;;;6.20;93.30;;;;;;10598282;28;20200;-80
2023/01/16 08:59:00;;;;;;;1.90;1.80;;;6.20;93.10;;;;;;10597264;28;20762;-80
2023/01/16 09:04:02;;;;;;;4.23;2.10;;;6.20;92.90;;;;;;10594470;28;20265;-80
2023/01/16 09:09:06;;;;;;;0.80;0.80;;;6.30;93.30;;;;;;10595240;28;20214;-80
2023/01/16 09:14:08;;;;;;;2.17;1.90;;;6.50;93.20;;;;;;10595516;28;20263;-81
2023/01/16 09:19:10;;;;;;;1.33;1.23;;;6.50;92.90;;;;;;10594250;28;20208;-81
2023/01/16 09:24:14;;;;;;;1.60;1.50;;;6.70;92.70;;;;;;10591689;28;20298;-81
2023/01/16 09:29:16;;;;;;;2.80;1.30;;;6.70;93.20;;;;;;10573156;28;20314;-81
2023/01/16 09:34:18;;;;;;;1.60;1.50;;;6.90;91.70;;;;;;10593534;28;20565;-80
2023/01/16 09:39:21;;;;;;;1.73;1.40;;;7.00;91.40;;;;;;10594406;28;20249;-83
2023/01/16 09:44:24;;;;;;;4.87;3.83;;;7.10;90.90;;;;;;10593679;28;20279;-82
2023/01/16 09:49:31;;;;;;;1.53;1.43;;;7.10;90.50;;;;;;10595847;28;20287;-82
2023/01/16 10:00:02;;;;;;;1.20;1.10;;;7.40;88.90;;;;;;10594922;28;20252;-82
2023/01/16 10:05:06;;;;;;;1.63;1.52;;;7.60;88.80;;;;;;10589698;28;20202;-82
2023/01/16 10:10:20;;;;;;;2.57;1.17;;;7.80;87.70;;;;;;10590026;28;20260;-82
2023/01/16 10:15:32;;;;;;;2.30;1.50;;;7.80;86.10;;;;;;10594333;28;20205;-82
2023/01/16 10:20:55;;;;;;;8.93;4.50;;;7.70;86.00;;;;;;10596631;28;20270;-82
2023/01/16 10:26:03;;;;;;;1.60;1.40;;;7.60;85.30;;;;;;10598427;28;20199;-82
2023/01/16 10:31:11;;;;;;;2.40;1.67;;;7.70;85.20;;;;;;10593285;28;20231;-80
2023/01/16 10:36:17;;;;;;;1.30;1.20;;;7.60;87.30;;;;;;10581036;28;20219;-79
2023/01/16 10:52:05;;;;;;;1.63;1.53;;;7.70;84.80;;;;;;10587560;28;20218;-80
2023/01/16 10:57:16;;;;;;;2.13;2.03;;;7.70;86.90;;;;;;10603335;28;20191;-80
2023/01/16 11:02:23;;;;;;;1.80;1.70;;;7.70;87.80;;;;;;10631740;28;20772;-81
2023/01/16 11:07:29;;;;;;;1.90;1.80;;;7.90;86.30;;;;;;10591151;28;20205;-80
2023/01/16 11:23:18;;;;;;;2.47;1.23;;;8.00;92.00;;;;;;10584843;28;20649;-83
2023/01/16 11:28:26;;;;;;;1.93;1.70;;;7.90;92.40;;;;;;10585932;28;20198;-81
2023/01/16 11:33:34;;;;;;;1.90;1.80;;;7.90;93.90;;;;;;10593480;28;20282;-81
2023/01/16 11:38:39;;;;;;;3.70;1.33;;;8.00;93.90;;;;;;10603449;28;20218;-81
2023/01/16 11:49:04;;;;;;;6.97;6.37;;;8.20;93.30;;;;;;10573932;28;20242;-81
2023/01/16 11:54:13;;;;;;;1.90;1.80;;;8.20;93.80;;;;;;10606050;28;20190;-80
2023/01/16 11:59:34;;;;;;;1.90;1.80;;;8.30;93.70;;;;;;10611571;28;20207;-81
2023/01/16 12:05:53;;;;;;;2.80;2.60;;;8.40;93.10;;;;;;10609068;28;20252;-81
2023/01/16 12:10:15;;;;;;;1.63;1.53;;;8.50;93.00;;;;;;10596894;28;20614;-81
2023/01/16 12:15:23;;;;;;;1.70;1.60;;;8.60;93.50;;;;;;10588149;28;20839;-81
2023/01/16 12:20:32;;;;;;;1.60;1.50;;;8.70;93.40;;;;;;10587168;28;20294;-82
2023/01/16 12:25:40;;;;;;;23.63;19.47;;;8.70;93.70;;;;;;10588922;28;20263;-81
2023/01/16 12:31:07;;;;;;;1.97;1.87;;;8.80;93.60;;;;;;10588540;28;20199;-80
2023/01/16 12:36:16;;;;;;;2.50;2.40;;;8.90;92.90;;;;;;10586331;28;20227;-81
2023/01/16 12:46:51;;;;;;;9.40;6.13;;;9.00;93.70;;;;;;10585859;28;20191;-81
2023/01/16 12:52:04;;;;;;;1.88;1.77;;;9.10;92.90;;;;;;10586966;28;20222;-81
2023/01/16 12:57:37;;;;;;;2.00;1.90;;;9.30;93.30;;;;;;10566988;28;20187;-82
2023/01/16 13:02:46;;;;;;;1.60;1.50;;;9.30;92.60;;;;;;10576923;28;20219;-81
2023/01/16 13:07:54;;;;;;;1.17;1.17;;;9.20;92.90;;;;;;10590156;28;20463;-81
2023/01/16 13:18:23;;;;;;;1.60;1.50;;;9.40;93.30;;;;;;10593636;28;20187;-81
2023/01/16 13:23:29;;;;;;;1.50;1.50;;;9.40;92.80;;;;;;10593442;28;20223;-81
2023/01/16 13:28:42;;;;;;;1.10;1.03;;;9.30;93.10;;;;;;10590548;28;20206;-81
2023/01/16 13:33:50;;;;;;;1.67;1.60;;;9.20;93.30;;;;;;10594356;28;20191;-81
2023/01/16 13:39:04;;;;;;;1.70;1.60;;;9.20;93.20;;;;;;10595317;28;20215;-80
2023/01/16 14:01:37;;;;;;;1.60;1.50;;;9.50;91.60;;;;;;10569191;28;20258;-86
2023/01/16 14:06:45;;;;;;;2.83;0.93;;;9.40;91.30;;;;;;10507017;28;20195;-86
2023/01/16 14:12:01;;;;;;;1.50;1.50;;;9.20;92.30;;;;;;10533087;28;20208;-86
2023/01/16 14:17:05;;;;;;;4.20;1.02;;;9.10;91.30;;;;;;10525218;28;20201;-86
2023/01/16 14:27:41;;;;;;;1.70;1.70;;;9.20;91.40;;;;;;10537999;28;20286;-86
2023/01/16 14:32:51;;;;;;;1.75;1.60;;;9.00;91.90;;;;;;10535877;28;20295;-87
2023/01/16 14:38:00;;;;;;;1.40;1.40;;;9.10;92.50;;;;;;10533421;28;20228;-86
2023/01/16 14:59:24;;;;;;;1.50;1.40;;;8.60;93.20;;;;;;10498492;28;20227;-87
2023/01/16 15:04:39;;;;;;;1.93;1.83;;;8.70;92.30;;;;;;10521343;28;20212;-87
2023/01/16 15:09:43;;;;;;;1.73;1.67;;;8.60;92.80;;;;;;10522509;28;20314;-86
2023/01/16 15:14:54;;;;;;;1.30;1.30;;;8.50;92.90;;;;;;10519077;28;20203;-87
2023/01/16 15:25:34;;;;;;;2.80;2.70;;;8.50;92.40;;;;;;10534151;28;20295;-87
2023/01/16 15:30:37;;;;;;;2.20;2.10;;;8.40;93.10;;;;;;10499026;28;20215;-86
2023/01/16 15:35:41;;;;;;;2.08;1.98;;;8.40;92.90;;;;;;10528095;28;20192;-86
2023/01/16 15:40:50;;;;;;;1.97;1.87;;;8.60;93.30;;;;;;10498171;28;20244;-86
2023/01/16 15:51:23;;;;;;;3.80;3.47;;;8.40;96.40;;;;;;10510948;28;20695;-87
2023/01/16 15:56:31;;;;;;;1.90;1.80;;;8.20;96.90;;;;;;10490396;28;20304;-86
2023/01/16 16:01:34;;;;;;;1.80;1.80;;;7.90;98.20;;;;;;10498168;28;20230;-86
2023/01/16 16:06:40;;;;;;;2.00;1.90;;;7.80;98.70;;;;;;10503568;28;20204;-86
2023/01/16 16:11:55;;;;;;;1.50;1.48;;;7.70;99.00;;;;;;10512580;28;20216;-87
2023/01/16 16:27:44;;;;;;;2.10;2.00;;;7.60;99.90;;;;;;10496688;28;20207;-88
2023/01/16 16:32:46;;;;;;;2.40;1.90;;;7.60;99.90;;;;;;10524704;28;20536;-88
2023/01/16 16:37:50;;;;;;;1.90;1.90;;;7.60;99.90;;;;;;10524460;28;20196;-88
2023/01/16 16:42:55;;;;;;;2.03;1.97;;;7.60;99.90;;;;;;10519864;28;20268;-87
2023/01/16 16:48:22;;;;;;;2.23;2.03;;;7.60;99.90;;;;;;10522380;28;20227;-87
2023/01/16 16:53:27;;;;;;;3.73;3.53;;;7.30;99.90;;;;;;10522169;28;20622;-87
2023/01/16 16:58:29;;;;;;;4.40;4.20;;;7.10;99.90;;;;;;10539834;28;20273;-86
2023/01/16 17:03:32;;;;;;;2.73;2.63;;;6.90;99.90;;;;;;10510725;28;20686;-89
2023/01/16 17:08:36;;;;;;;5.40;5.20;;;6.80;99.90;;;;;;10532595;28;20205;-89
2023/01/16 17:13:38;;;;;;;4.60;4.40;;;6.70;99.90;;;;;;10526323;28;20628;-88
2023/01/16 17:18:40;;;;;;;6.10;5.90;;;6.60;99.90;;;;;;10506624;28;20195;-88
2023/01/16 17:23:45;;;;;;;5.75;5.55;;;6.50;99.90;;;;;;10528184;28;20663;-87
2023/01/16 17:28:47;;;;;;;3.87;3.77;;;6.50;99.90;;;;;;10540747;28;20233;-86
2023/01/16 17:33:49;;;;;;;6.00;5.80;;;6.50;99.90;;;;;;10510838;28;20195;-85
2023/01/16 17:38:53;;;;;;;5.88;5.68;;;6.50;99.90;;;;;;10508629;28;20978;-86
2023/01/16 17:49:15;;;;;;;7.80;7.23;;;6.50;99.90;;;;;;10528089;28;20216;-85
2023/01/16 17:59:34;;;;;;;6.23;6.03;;;6.30;99.90;;;;;;10545623;28;20250;-85
2023/01/16 18:04:36;;;;;;;6.77;6.37;;;6.20;99.90;;;;;;10510586;28;20231;-86
2023/01/16 18:09:40;;;;;;;5.25;4.85;;;6.10;99.90;;;;;;10488790;28;20216;-86
2023/01/16 18:20:01;;;;;;;11.17;5.97;;;6.10;99.90;;;;;;10531418;28;20228;-83
2023/01/16 18:25:09;;;;;;;3.83;3.67;;;6.00;99.90;;;;;;10517557;28;20224;-84
2023/01/16 18:30:12;;;;;;;4.60;4.30;;;6.00;99.90;;;;;;10528197;28;20319;-83
2023/01/16 18:35:15;;;;;;;5.97;5.57;;;6.00;99.90;;;;;;10517568;28;20199;-84
2023/01/16 19:01:57;;;;;;;4.60;4.40;;;6.00;99.90;;;;;;10507707;28;20235;-83
2023/01/16 19:07:02;;;;;;;4.90;4.60;;;6.00;99.90;;;;;;10496018;28;20266;-82
2023/01/16 19:12:07;;;;;;;6.27;5.97;;;5.90;99.90;;;;;;10531648;28;20484;-82
2023/01/16 19:17:09;;;;;;;5.70;5.50;;;5.90;99.90;;;;;;10511361;28;20234;-85
2023/01/16 19:22:11;;;;;;;4.57;4.37;;;5.90;99.90;;;;;;10526974;28;20350;-85
2023/01/16 19:27:15;;;;;;;5.23;5.03;;;6.00;99.90;;;;;;10482650;28;20545;-85
2023/01/16 19:32:17;;;;;;;6.20;6.00;;;5.90;99.90;;;;;;10543637;28;20335;-85
2023/01/16 19:37:19;;;;;;;5.90;5.63;;;5.90;99.90;;;;;;10493509;28;20219;-84
2023/01/16 19:47:39;;;;;;;3.95;3.75;;;6.00;99.90;;;;;;10469411;28;20304;-85
2023/01/16 19:52:41;;;;;;;4.30;4.00;;;6.20;99.90;;;;;;10536279;22;20602;-83
2023/01/16 19:57:45;;;;;;;7.00;6.70;;;6.10;99.90;;;;;;10529161;28;20570;-83
2023/01/16 20:02:48;;;;;;;5.87;5.57;;;5.90;99.90;;;;;;10510432;28;20226;-83
2023/01/16 20:07:54;;;;;;;6.80;6.50;;;5.70;99.90;;;;;;10525572;28;20225;-84
2023/01/16 20:12:57;;;;;;;6.10;5.80;;;5.90;99.90;;;;;;10521332;28;20219;-84
2023/01/16 20:17:59;;;;;;;7.70;7.10;;;5.90;99.90;;;;;;10515929;28;20203;-83
2023/01/16 20:23:02;;;;;;;5.70;5.20;;;5.80;99.90;;;;;;10514413;28;20234;-84
2023/01/16 20:28:08;;;;;;;9.13;8.33;;;5.90;99.90;;;;;;10532592;28;20207;-83
2023/01/16 20:33:10;;;;;;;5.03;4.70;;;5.80;99.90;;;;;;10509342;28;20215;-84
2023/01/16 20:38:12;;;;;;;5.47;5.10;;;5.80;99.90;;;;;;10547030;28;20213;-82
2023/01/16 20:48:35;;;;;;;5.80;5.40;;;5.90;99.90;;;;;;10518034;28;20272;-82
2023/01/16 20:53:37;;;;;;;4.60;4.40;;;5.90;99.90;;;;;;10532123;28;20254;-83
2023/01/16 20:58:43;;;;;;;7.37;4.83;;;5.90;99.90;;;;;;10524029;28;20543;-82
2023/01/16 21:03:45;;;;;;;4.57;4.27;;;6.00;99.90;;;;;;10525584;28;20247;-81
2023/01/16 21:08:47;;;;;;;4.32;4.13;;;6.00;99.90;;;;;;10548999;28;20207;-81
2023/01/16 21:24:33;;;;;;;5.53;5.13;;;6.40;99.90;;;;;;10523758;28;20220;-82
2023/01/16 21:29:39;;;;;;;5.87;5.40;;;6.40;99.90;;;;;;10523451;28;20228;-82
2023/01/16 21:34:43;;;;;;;5.13;4.73;;;6.50;99.90;;;;;;10511416;28;20240;-82
2023/01/16 21:39:51;;;;;;;5.10;4.60;;;6.50;99.90;;;;;;10527000;28;20222;-81
2023/01/16 21:50:14;;;;;;;4.63;4.43;;;6.50;99.90;;;;;;10542186;28;20258;-82
2023/01/16 21:55:17;;;;;;;4.60;4.40;;;6.60;99.90;;;;;;10558439;28;20208;-82
2023/01/16 22:00:20;;;;;;;5.33;4.93;;;6.70;99.90;;;;;;10551151;28;20217;-82
2023/01/16 22:05:23;;;;;;;5.03;4.47;;;6.70;99.90;;;;;;10552796;28;20319;-81
2023/01/16 22:10:25;;;;;;;4.27;3.80;;;6.60;99.90;;;;;;10584299;28;20283;-80
2023/01/16 22:20:54;;;;;;;4.00;3.80;;;6.50;99.90;;;;;;10526918;28;20329;-81
2023/01/16 22:26:00;;;;;;;4.67;4.20;;;6.70;99.90;;;;;;10516562;28;20216;-83
2023/01/16 22:31:05;;;;;;;4.70;4.40;;;6.70;99.90;;;;;;10511059;28;20614;-83
2023/01/16 22:36:09;;;;;;;4.60;4.23;;;6.80;99.90;;;;;;10539937;28;20763;-84
2023/01/16 22:41:23;;;;;;;5.15;4.75;;;6.80;99.90;;;;;;10560321;28;20258;-83
2023/01/16 22:46:28;;;;;;;4.43;4.20;;;6.90;99.90;;;;;;10541836;28;20215;-83
2023/01/16 22:51:31;;;;;;;4.27;4.07;;;6.90;99.90;;;;;;10550591;28;20236;-83
2023/01/16 22:56:33;;;;;;;4.40;3.93;;;6.90;99.90;;;;;;10538933;28;20257;-83
2023/01/16 23:01:37;;;;;;;3.57;3.27;;;6.90;99.90;;;;;;10551785;28;20703;-82
2023/01/16 23:06:39;;;;;;;4.87;4.47;;;6.90;99.90;;;;;;10546671;28;20514;-83
2023/01/16 23:11:45;;;;;;;3.87;3.70;;;7.00;99.90;;;;;;10517500;28;20243;-83
2023/01/16 23:16:50;;;;;;;4.10;3.80;;;7.00;99.90;;;;;;10511382;28;20283;-82
2023/01/16 23:21:53;;;;;;;4.70;4.30;;;7.00;99.90;;;;;;10517528;28;20295;-82
2023/01/16 23:26:58;;;;;;;3.90;3.70;;;7.10;99.90;;;;;;10523397;28;20299;-83
2023/01/16 23:32:01;;;;;;;3.83;3.63;;;7.00;99.90;;;;;;10526806;28;20233;-82
2023/01/16 23:37:03;;;;;;;4.33;4.17;;;6.90;99.90;;;;;;10549198;28;20652;-82
2023/01/16 23:47:26;;;;;;;3.87;3.77;;;6.60;99.90;;;;;;10525483;28;20248;-82
2023/01/16 23:52:29;;;;;;;4.10;4.00;;;6.40;99.90;;;;;;10511844;28;20724;-82
2023/01/16 23:57:31;;;;;;;3.90;3.80;;;6.30;99.90;;;;;;10496163;28;20729;-82
